createdAt,value
2023-01-19T00:00:18.029Z,-7.4
2023-01-19T00:01:18.062Z,-7.7
2023-01-19T00:02:17.972Z,-7.7
2023-01-19T00:03:18.048Z,-7.7
2023-01-19T00:04:18.019Z,-7.7
2023-01-19T00:05:18.214Z,-7.9
2023-01-19T00:06:18.043Z,-7.9
2023-01-19T00:07:18.084Z,-7.9
2023-01-19T00:08:18.037Z,-7.8
2023-01-19T00:09:18.042Z,-7.8
2023-01-19T00:10:17.999Z,-7.8
2023-01-19T00:11:18.045Z,-7.8
2023-01-19T00:12:17.996Z,-7.7
2023-01-19T00:13:18.044Z,-7.7
2023-01-19T00:14:18.046Z,-7.7
2023-01-19T00:15:18.012Z,-7.6
2023-01-19T00:16:18.047Z,-7.6
2023-01-19T00:17:18.041Z,-7.6
2023-01-19T00:18:18.007Z,-7.6
2023-01-19T00:19:18.042Z,-7.6
2023-01-19T00:20:18.082Z,-7.6
2023-01-19T00:21:18.124Z,-7.6
2023-01-19T00:22:18.068Z,-7.6
2023-01-19T00:23:18.032Z,-7.6
2023-01-19T00:24:18.069Z,-7.6
2023-01-19T00:25:18.040Z,-7.7
2023-01-19T00:26:18.082Z,-7.7
2023-01-19T00:27:18.124Z,-7.7
2023-01-19T00:28:18.049Z,-7.7
2023-01-19T00:29:18.080Z,-7.8
2023-01-19T00:30:18.048Z,-7.8
2023-01-19T00:31:18.107Z,-7.8
2023-01-19T00:32:18.079Z,-7.8
2023-01-19T00:33:18.231Z,-7.8
2023-01-19T00:34:18.095Z,-7.8
2023-01-19T00:35:18.091Z,-7.8
2023-01-19T00:36:18.062Z,-7.8
2023-01-19T00:37:18.350Z,-7.8
2023-01-19T00:38:18.037Z,-7.8
2023-01-19T00:39:18.128Z,-7.9
2023-01-19T00:40:18.097Z,-7.9
2023-01-19T00:41:18.391Z,-7.9
2023-01-19T00:42:18.092Z,-8
2023-01-19T00:43:18.153Z,-8
2023-01-19T00:44:18.090Z,-8
2023-01-19T00:45:18.161Z,-8
2023-01-19T00:46:18.133Z,-8.1
2023-01-19T00:47:18.138Z,-8.1
2023-01-19T00:48:18.169Z,-8.1
2023-01-19T00:49:18.202Z,-8.2
2023-01-19T00:50:18.140Z,-8.2
2023-01-19T00:51:18.141Z,-8.2
2023-01-19T00:52:18.177Z,-8.2
2023-01-19T00:53:18.204Z,-8.2
2023-01-19T00:54:18.157Z,-8.2
2023-01-19T00:55:18.147Z,-8.2
2023-01-19T00:56:18.153Z,-8.2
2023-01-19T00:57:18.195Z,-8.2
2023-01-19T00:58:18.200Z,-8.2
2023-01-19T00:59:18.266Z,-8.1
2023-01-19T01:00:18.230Z,-8.1
2023-01-19T01:01:18.275Z,-8.1
2023-01-19T01:02:18.343Z,-8.1
2023-01-19T01:03:18.230Z,-8
2023-01-19T01:04:18.196Z,-8
2023-01-19T01:05:18.237Z,-8
2023-01-19T01:06:18.216Z,-8.1
2023-01-19T01:07:18.227Z,-8.1
2023-01-19T01:08:18.256Z,-8.1
2023-01-19T01:09:18.267Z,-8.1
2023-01-19T01:10:18.223Z,-8.1
2023-01-19T01:11:18.316Z,-8.1
2023-01-19T01:12:18.224Z,-8.1
2023-01-19T01:13:20.631Z,-8.1
2023-01-19T01:14:18.244Z,-8.1
2023-01-19T01:15:18.176Z,-8.1
2023-01-19T01:16:18.261Z,-8.1
2023-01-19T01:17:18.242Z,-8.1
2023-01-19T01:18:18.221Z,-8.1
2023-01-19T01:19:18.253Z,-8.1
2023-01-19T01:20:18.247Z,-8.1
2023-01-19T01:21:18.310Z,-8.1
2023-01-19T01:22:18.238Z,-8.1
2023-01-19T01:23:18.245Z,-8.1
2023-01-19T01:24:18.321Z,-7.9
2023-01-19T01:25:18.369Z,-7.9
2023-01-19T01:26:18.308Z,-7.9
2023-01-19T01:27:18.585Z,-7.9
2023-01-19T01:28:18.353Z,-7.8
2023-01-19T01:29:18.516Z,-7.8
2023-01-19T01:30:18.423Z,-7.8
2023-01-19T01:31:18.414Z,-7.7
2023-01-19T01:32:18.321Z,-7.7
2023-01-19T01:33:40.318Z,-7.7
2023-01-19T01:34:18.350Z,-7.7
2023-01-19T01:35:18.460Z,-7.7
2023-01-19T01:36:18.305Z,-7.7
2023-01-19T01:37:18.302Z,-7.7
2023-01-19T01:38:18.349Z,-7.9
2023-01-19T01:39:18.330Z,-7.9
2023-01-19T01:40:18.344Z,-7.9
2023-01-19T01:41:18.790Z,-7.9
2023-01-19T01:42:18.359Z,-8.2
2023-01-19T01:43:18.314Z,-8.2
2023-01-19T01:44:18.310Z,-8.2
2023-01-19T01:45:18.321Z,-8.4
2023-01-19T01:46:18.372Z,-8.4
2023-01-19T01:47:18.337Z,-8.4
2023-01-19T01:48:18.339Z,-8.4
2023-01-19T01:49:18.313Z,-8.4
2023-01-19T01:50:18.321Z,-8.4
2023-01-19T01:51:18.316Z,-8.4
2023-01-19T01:52:18.312Z,-8.4
2023-01-19T01:53:18.319Z,-8.4
2023-01-19T01:54:18.322Z,-8.4
2023-01-19T01:55:18.390Z,-8.3
2023-01-19T01:56:18.361Z,-8.3
2023-01-19T01:57:18.347Z,-8.3
2023-01-19T01:58:18.324Z,-8.3
2023-01-19T01:59:18.389Z,-8.2
2023-01-19T02:00:18.338Z,-8.2
2023-01-19T02:01:18.396Z,-8.2
2023-01-19T02:02:18.354Z,-8.2
2023-01-19T02:03:18.405Z,-8.2
2023-01-19T02:04:18.370Z,-8.2
2023-01-19T02:05:18.464Z,-8.3
2023-01-19T02:06:18.381Z,-8.3
2023-01-19T02:07:18.395Z,-8.3
2023-01-19T02:08:18.393Z,-8.3
2023-01-19T02:09:18.507Z,-8.3
2023-01-19T02:10:18.402Z,-8.3
2023-01-19T02:11:18.393Z,-8.3
2023-01-19T02:12:18.410Z,-8.1
2023-01-19T02:13:18.355Z,-8.1
2023-01-19T02:14:18.401Z,-8.1
2023-01-19T02:15:18.431Z,-8.1
2023-01-19T02:16:18.469Z,-8.1
2023-01-19T02:17:18.467Z,-8.1
2023-01-19T02:18:18.425Z,-8.1
2023-01-19T02:19:18.435Z,-8
2023-01-19T02:20:18.433Z,-8
2023-01-19T02:21:18.521Z,-8
2023-01-19T02:22:18.418Z,-8
2023-01-19T02:23:18.417Z,-8
2023-01-19T02:24:18.409Z,-8
2023-01-19T02:25:18.412Z,-8
2023-01-19T02:26:18.548Z,-7.9
2023-01-19T02:27:18.480Z,-7.9
2023-01-19T02:28:18.499Z,-7.9
2023-01-19T02:29:18.537Z,-7.9
2023-01-19T02:30:18.470Z,-7.9
2023-01-19T02:31:18.495Z,-7.9
2023-01-19T02:32:18.535Z,-7.9
2023-01-19T02:33:18.461Z,-7.9
2023-01-19T02:34:18.480Z,-7.9
2023-01-19T02:35:18.491Z,-7.9
2023-01-19T02:36:18.457Z,-7.9
2023-01-19T02:37:18.550Z,-7.9
2023-01-19T02:38:18.530Z,-7.9
2023-01-19T02:39:18.459Z,-8.1
2023-01-19T02:40:18.493Z,-8.1
2023-01-19T02:41:18.472Z,-8.1
2023-01-19T02:42:18.528Z,-8.1
2023-01-19T02:43:18.481Z,-8.2
2023-01-19T02:44:18.521Z,-8.2
2023-01-19T02:45:18.508Z,-8.2
2023-01-19T02:46:18.510Z,-8.2
2023-01-19T02:47:18.612Z,-8.2
2023-01-19T02:48:18.517Z,-8.2
2023-01-19T02:49:18.666Z,-8
2023-01-19T02:50:18.563Z,-8
2023-01-19T02:51:18.644Z,-8
2023-01-19T02:52:18.556Z,-8
2023-01-19T02:53:18.580Z,-7.6
2023-01-19T02:54:18.573Z,-7.6
2023-01-19T02:55:18.651Z,-7.6
2023-01-19T02:56:18.543Z,-7.4
2023-01-19T02:57:18.566Z,-7.4
2023-01-19T02:58:18.545Z,-7.4
2023-01-19T02:59:18.549Z,-7.4
2023-01-19T03:00:18.603Z,-7.3
2023-01-19T03:01:18.744Z,-7.3
2023-01-19T03:02:18.720Z,-7.3
2023-01-19T03:03:18.680Z,-7.4
2023-01-19T03:04:18.676Z,-7.4
2023-01-19T03:05:18.682Z,-7.4
2023-01-19T03:06:18.683Z,-7.4
2023-01-19T03:07:18.611Z,-7.4
2023-01-19T03:08:18.610Z,-7.4
2023-01-19T03:09:18.638Z,-7.4
2023-01-19T03:10:18.630Z,-7.4
2023-01-19T03:11:18.627Z,-7.4
2023-01-19T03:12:18.686Z,-7.4
2023-01-19T03:13:18.620Z,-7.6
2023-01-19T03:14:18.677Z,-7.6
2023-01-19T03:15:18.620Z,-7.6
2023-01-19T03:16:18.684Z,-7.7
2023-01-19T03:17:18.611Z,-7.7
2023-01-19T03:18:18.605Z,-7.7
2023-01-19T03:19:18.648Z,-7.7
2023-01-19T03:20:18.610Z,-7.8
2023-01-19T03:21:18.602Z,-7.8
2023-01-19T03:22:18.603Z,-7.8
2023-01-19T03:23:18.606Z,-7.8
2023-01-19T03:24:18.715Z,-7.8
2023-01-19T03:25:18.619Z,-7.8
2023-01-19T03:26:18.632Z,-7.8
2023-01-19T03:27:18.841Z,-7.8
2023-01-19T03:28:18.646Z,-7.8
2023-01-19T03:29:18.673Z,-7.8
2023-01-19T03:30:18.726Z,-7.8
2023-01-19T03:31:18.724Z,-7.8
2023-01-19T03:32:18.681Z,-7.8
2023-01-19T03:33:18.778Z,-7.9
2023-01-19T03:34:18.702Z,-7.9
2023-01-19T03:35:18.850Z,-7.9
2023-01-19T03:36:18.668Z,-7.9
2023-01-19T03:37:18.679Z,-8
2023-01-19T03:38:18.691Z,-8
2023-01-19T03:39:18.684Z,-8
2023-01-19T03:40:18.675Z,-8.1
2023-01-19T03:41:18.675Z,-8.1
2023-01-19T03:42:18.679Z,-8.1
2023-01-19T03:43:18.703Z,-8.1
2023-01-19T03:44:18.709Z,-8.1
2023-01-19T03:45:18.877Z,-8.1
2023-01-19T03:46:18.970Z,-8.1
2023-01-19T03:47:18.784Z,-8.1
2023-01-19T03:48:18.800Z,-8.1
2023-01-19T03:49:18.836Z,-8.1
2023-01-19T03:50:18.773Z,-8
2023-01-19T03:51:18.771Z,-8
2023-01-19T03:52:18.786Z,-8
2023-01-19T03:53:18.953Z,-8
2023-01-19T03:54:18.853Z,-7.7
2023-01-19T03:55:18.803Z,-7.7
2023-01-19T03:56:18.752Z,-7.7
2023-01-19T03:57:18.751Z,-7.6
2023-01-19T03:58:18.771Z,-7.6
2023-01-19T03:59:18.889Z,-7.6
2023-01-19T04:00:18.742Z,-7.6
2023-01-19T04:01:18.959Z,-7.6
2023-01-19T04:02:18.770Z,-7.6
2023-01-19T04:03:18.824Z,-7.6
2023-01-19T04:04:18.802Z,-7.6
2023-01-19T04:05:18.765Z,-7.6
2023-01-19T04:06:18.773Z,-7.6
2023-01-19T04:07:18.877Z,-7.7
2023-01-19T04:08:18.827Z,-7.7
2023-01-19T04:09:20.015Z,-7.7
2023-01-19T04:10:18.777Z,-7.7
2023-01-19T04:11:18.779Z,-7.8
2023-01-19T04:12:18.854Z,-7.8
2023-01-19T04:13:18.782Z,-7.8
2023-01-19T04:14:18.772Z,-7.8
2023-01-19T04:15:18.872Z,-7.8
2023-01-19T04:16:18.848Z,-7.8
2023-01-19T04:17:18.954Z,-7.6
2023-01-19T04:18:18.801Z,-7.6
2023-01-19T04:19:18.836Z,-7.6
2023-01-19T04:20:18.847Z,-7.6
2023-01-19T04:21:18.889Z,-7.4
2023-01-19T04:22:18.845Z,-7.4
2023-01-19T04:23:18.807Z,-7.4
2023-01-19T04:24:18.840Z,-7.2
2023-01-19T04:25:18.899Z,-7.2
2023-01-19T04:26:18.800Z,-7.2
2023-01-19T04:27:18.866Z,-7
2023-01-19T04:28:18.804Z,-7
2023-01-19T04:29:18.861Z,-7
2023-01-19T04:30:18.838Z,-7
2023-01-19T04:31:18.940Z,-6.9
2023-01-19T04:32:18.925Z,-6.9
2023-01-19T04:33:19.018Z,-6.9
2023-01-19T04:34:18.929Z,-6.9
2023-01-19T04:35:18.848Z,-6.9
2023-01-19T04:36:18.870Z,-6.9
2023-01-19T04:37:18.890Z,-7.1
2023-01-19T04:38:18.894Z,-7.1
2023-01-19T04:39:18.909Z,-7.1
2023-01-19T04:40:18.940Z,-7.1
2023-01-19T04:41:18.865Z,-7.3
2023-01-19T04:42:18.901Z,-7.3
2023-01-19T04:43:18.855Z,-7.3
2023-01-19T04:44:18.915Z,-7.5
2023-01-19T04:45:18.904Z,-7.5
2023-01-19T04:46:18.865Z,-7.5
2023-01-19T04:47:18.861Z,-7.7
2023-01-19T04:48:18.935Z,-7.7
2023-01-19T04:49:19.000Z,-7.7
2023-01-19T04:50:18.882Z,-7.7
2023-01-19T04:51:18.969Z,-7.6
2023-01-19T04:52:18.943Z,-7.6
2023-01-19T04:53:18.925Z,-7.6
2023-01-19T04:54:18.941Z,-7.4
2023-01-19T04:55:18.986Z,-7.4
2023-01-19T04:56:18.886Z,-7.4
2023-01-19T04:57:18.985Z,-7.4
2023-01-19T04:58:18.898Z,-7.2
2023-01-19T04:59:18.942Z,-7.2
2023-01-19T05:00:18.945Z,-7.2
2023-01-19T05:01:18.937Z,-7.2
2023-01-19T05:02:18.962Z,-7.2
2023-01-19T05:03:19.132Z,-7.2
2023-01-19T05:04:18.955Z,-7.2
2023-01-19T05:05:19.105Z,-7.2
2023-01-19T05:06:19.017Z,-7.2
2023-01-19T05:07:19.263Z,-7.2
2023-01-19T05:08:19.085Z,-7.3
2023-01-19T05:09:19.100Z,-7.3
2023-01-19T05:10:19.025Z,-7.3
2023-01-19T05:11:19.108Z,-7.5
2023-01-19T05:12:19.009Z,-7.5
2023-01-19T05:13:19.103Z,-7.5
2023-01-19T05:14:19.057Z,-7.7
2023-01-19T05:15:18.986Z,-7.7
2023-01-19T05:16:19.050Z,-7.7
2023-01-19T05:17:18.972Z,-7.7
2023-01-19T05:18:18.973Z,-7.7
2023-01-19T05:19:19.020Z,-7.7
2023-01-19T05:20:19.024Z,-7.7
2023-01-19T05:21:19.114Z,-7.6
2023-01-19T05:22:19.022Z,-7.6
2023-01-19T05:23:19.076Z,-7.6
2023-01-19T05:24:19.050Z,-7.6
2023-01-19T05:25:19.067Z,-7.4
2023-01-19T05:26:18.992Z,-7.4
2023-01-19T05:27:19.023Z,-7.4
2023-01-19T05:28:18.991Z,-7.2
2023-01-19T05:29:19.155Z,-7.2
2023-01-19T05:30:19.016Z,-7.2
2023-01-19T05:31:19.713Z,-7
2023-01-19T05:32:18.986Z,-7
2023-01-19T05:33:19.068Z,-7
2023-01-19T05:34:19.004Z,-7
2023-01-19T05:35:25.089Z,-7
2023-01-19T05:36:19.032Z,-7
2023-01-19T05:37:19.054Z,-7
2023-01-19T05:38:26.286Z,-6.9
2023-01-19T05:39:19.036Z,-6.9
2023-01-19T05:40:18.998Z,-6.9
2023-01-19T05:41:19.047Z,-6.9
2023-01-19T05:42:19.027Z,-6.8
2023-01-19T05:43:19.196Z,-6.8
2023-01-19T05:44:19.061Z,-6.8
2023-01-19T05:45:19.183Z,-6.7
2023-01-19T05:46:19.131Z,-6.7
2023-01-19T05:47:19.123Z,-6.7
2023-01-19T05:48:19.061Z,-6.6
2023-01-19T05:49:19.245Z,-6.6
2023-01-19T05:50:19.052Z,-6.6
2023-01-19T05:51:19.122Z,-6.6
2023-01-19T05:52:19.082Z,-6.5
2023-01-19T05:53:19.115Z,-6.5
2023-01-19T05:54:19.147Z,-6.5
2023-01-19T05:55:19.111Z,-6.3
2023-01-19T05:56:19.136Z,-6.3
2023-01-19T05:57:19.108Z,-6.3
2023-01-19T05:58:19.178Z,-6.3
2023-01-19T05:59:19.215Z,-6.1
2023-01-19T06:00:19.227Z,-6.1
2023-01-19T06:01:19.412Z,-6.1
2023-01-19T06:02:19.173Z,-5.8
2023-01-19T06:03:19.213Z,-5.8
2023-01-19T06:04:19.171Z,-5.8
2023-01-19T06:05:19.130Z,-5.6
2023-01-19T06:06:19.167Z,-5.6
2023-01-19T06:07:19.140Z,-5.6
2023-01-19T06:08:19.136Z,-5.6
2023-01-19T06:09:19.300Z,-5.6
2023-01-19T06:10:19.217Z,-5.6
2023-01-19T06:11:19.207Z,-5.6
2023-01-19T06:12:19.236Z,-5.7
2023-01-19T06:13:19.159Z,-5.7
2023-01-19T06:14:19.203Z,-5.7
2023-01-19T06:15:19.267Z,-5.7
2023-01-19T06:16:19.260Z,-5.7
2023-01-19T06:17:19.203Z,-5.7
2023-01-19T06:18:19.271Z,-5.7
2023-01-19T06:19:19.221Z,-5.7
2023-01-19T06:20:19.184Z,-5.7
2023-01-19T06:21:19.285Z,-5.7
2023-01-19T06:22:19.224Z,-5.6
2023-01-19T06:23:19.338Z,-5.6
2023-01-19T06:24:19.238Z,-5.6
2023-01-19T06:25:19.208Z,-5.6
2023-01-19T06:26:19.190Z,-5.5
2023-01-19T06:27:19.195Z,-5.5
2023-01-19T06:28:19.240Z,-5.5
2023-01-19T06:29:19.253Z,-5.1
2023-01-19T06:30:19.193Z,-5.1
2023-01-19T06:31:19.299Z,-5.1
2023-01-19T06:32:19.236Z,-4.9
2023-01-19T06:33:19.251Z,-4.9
2023-01-19T06:34:19.233Z,-4.9
2023-01-19T06:35:19.295Z,-4.9
2023-01-19T06:36:19.316Z,-4.4
2023-01-19T06:37:19.213Z,-4.4
2023-01-19T06:38:19.320Z,-4.4
2023-01-19T06:39:19.261Z,-4.2
2023-01-19T06:40:19.262Z,-4.2
2023-01-19T06:41:19.382Z,-4.2
2023-01-19T06:42:19.308Z,-4.2
2023-01-19T06:43:19.247Z,-4
2023-01-19T06:44:19.306Z,-4
2023-01-19T06:45:19.242Z,-4
2023-01-19T06:46:19.288Z,-3.9
2023-01-19T06:47:19.256Z,-3.9
2023-01-19T06:48:19.480Z,-3.9
2023-01-19T06:49:19.349Z,-3.8
2023-01-19T06:50:19.245Z,-3.8
2023-01-19T06:51:19.446Z,-3.8
2023-01-19T06:52:19.252Z,-3.8
2023-01-19T06:53:19.275Z,-3.6
2023-01-19T06:54:19.321Z,-3.6
2023-01-19T06:55:19.246Z,-3.6
2023-01-19T06:56:19.270Z,-3.4
2023-01-19T06:57:19.309Z,-3.4
2023-01-19T06:58:19.274Z,-3.4
2023-01-19T06:59:19.311Z,-3.1
2023-01-19T07:00:19.362Z,-3.1
2023-01-19T07:01:19.407Z,-3.1
2023-01-19T07:02:27.148Z,-3.1
2023-01-19T07:03:19.453Z,-2.8
2023-01-19T07:04:19.377Z,-2.8
2023-01-19T07:05:19.326Z,-2.8
2023-01-19T07:06:19.325Z,-2.5
2023-01-19T07:07:19.423Z,-2.5
2023-01-19T07:08:19.359Z,-2.5
2023-01-19T07:09:19.407Z,-2.2
2023-01-19T07:10:19.348Z,-2.2
2023-01-19T07:11:21.996Z,-2.2
2023-01-19T07:12:19.341Z,-2.2
2023-01-19T07:13:19.377Z,-2
2023-01-19T07:14:19.358Z,-2
2023-01-19T07:15:19.313Z,-2
2023-01-19T07:16:19.465Z,-1.7
2023-01-19T07:17:19.409Z,-1.7
2023-01-19T07:18:19.327Z,-1.7
2023-01-19T07:19:19.361Z,-1.6
2023-01-19T07:20:19.339Z,-1.6
2023-01-19T07:21:19.366Z,-1.6
2023-01-19T07:22:19.321Z,-1.6
2023-01-19T07:23:19.325Z,-1.6
2023-01-19T07:24:19.374Z,-1.6
2023-01-19T07:25:19.322Z,-1.6
2023-01-19T07:26:19.367Z,-1.5
2023-01-19T07:27:19.711Z,-1.5
2023-01-19T07:28:19.376Z,-1.5
2023-01-19T07:29:19.454Z,-1.5
2023-01-19T07:30:19.371Z,-1.6
2023-01-19T07:31:19.547Z,-1.6
2023-01-19T07:32:19.375Z,-1.6
2023-01-19T07:33:19.396Z,-1.6
2023-01-19T07:34:19.381Z,-1.6
2023-01-19T07:35:19.445Z,-1.6
2023-01-19T07:36:19.346Z,-1.6
2023-01-19T07:37:19.418Z,-1.6
2023-01-19T07:38:19.382Z,-1.6
2023-01-19T07:39:19.467Z,-1.6
2023-01-19T07:40:19.367Z,-1.7
2023-01-19T07:41:19.441Z,-1.7
2023-01-19T07:42:19.385Z,-1.7
2023-01-19T07:43:19.413Z,-1.7
2023-01-19T07:44:19.457Z,-1.7
2023-01-19T07:45:19.458Z,-1.7
2023-01-19T07:46:19.447Z,-1.7
2023-01-19T07:47:19.572Z,-1.7
2023-01-19T07:48:19.463Z,-1.7
2023-01-19T07:49:19.521Z,-1.7
2023-01-19T07:50:19.423Z,-1.7
2023-01-19T07:51:19.488Z,-1.6
2023-01-19T07:52:19.491Z,-1.6
2023-01-19T07:53:19.474Z,-1.6
2023-01-19T07:54:19.555Z,-1.6
2023-01-19T07:55:19.490Z,-1.6
2023-01-19T07:56:19.487Z,-1.5
2023-01-19T07:57:19.641Z,-1.5
2023-01-19T07:58:19.525Z,-1.5
2023-01-19T07:59:19.588Z,-1.3
2023-01-19T08:00:19.616Z,-1.3
2023-01-19T08:01:19.607Z,-1.3
2023-01-19T08:02:19.557Z,-1.3
2023-01-19T08:03:19.532Z,-1.1
2023-01-19T08:04:19.818Z,-1.1
2023-01-19T08:05:19.536Z,-1.1
2023-01-19T08:06:19.521Z,-1.1
2023-01-19T08:07:19.604Z,-0.9
2023-01-19T08:08:19.521Z,-0.9
2023-01-19T08:09:19.585Z,-0.9
2023-01-19T08:10:19.525Z,-0.9
2023-01-19T08:11:19.592Z,-0.8
2023-01-19T08:12:19.518Z,-0.8
2023-01-19T08:13:19.645Z,-0.8
2023-01-19T08:14:19.595Z,-0.9
2023-01-19T08:15:19.743Z,-0.9
2023-01-19T08:16:19.694Z,-0.9
2023-01-19T08:17:19.782Z,-0.9
2023-01-19T08:18:19.696Z,-0.9
2023-01-19T08:19:19.705Z,-0.9
2023-01-19T08:20:19.702Z,-0.9
2023-01-19T08:21:19.661Z,-0.8
2023-01-19T08:22:19.665Z,-0.8
2023-01-19T08:23:19.672Z,-0.8
2023-01-19T08:24:19.776Z,-0.8
2023-01-19T08:25:19.765Z,-0.8
2023-01-19T08:26:19.616Z,-0.8
2023-01-19T08:27:19.649Z,-0.8
2023-01-19T08:28:19.630Z,-0.8
2023-01-19T08:29:19.702Z,-0.8
2023-01-19T08:30:19.612Z,-0.8
2023-01-19T08:31:22.988Z,-0.7
2023-01-19T08:32:19.678Z,-0.7
2023-01-19T08:33:19.641Z,-0.7
2023-01-19T08:34:19.647Z,-0.7
2023-01-19T08:35:19.669Z,-0.7
2023-01-19T08:36:19.644Z,-0.7
2023-01-19T08:37:19.715Z,-0.7
2023-01-19T08:38:19.637Z,-0.7
2023-01-19T08:39:19.753Z,-0.7
2023-01-19T08:40:19.643Z,-0.7
2023-01-19T08:41:19.647Z,-0.6
2023-01-19T08:42:19.661Z,-0.6
2023-01-19T08:43:19.658Z,-0.6
2023-01-19T08:44:19.662Z,-0.6
2023-01-19T08:45:19.650Z,-0.6
2023-01-19T08:46:19.743Z,-0.6
2023-01-19T08:47:20.277Z,-0.6
2023-01-19T08:48:19.740Z,-0.5
2023-01-19T08:49:19.793Z,-0.5
2023-01-19T08:50:19.716Z,-0.5
2023-01-19T08:51:19.806Z,-0.5
2023-01-19T08:52:19.745Z,-0.5
2023-01-19T08:53:19.790Z,-0.5
2023-01-19T08:54:19.761Z,-0.5
2023-01-19T08:55:19.742Z,-0.5
2023-01-19T08:56:20.736Z,-0.5
2023-01-19T08:57:19.765Z,-0.5
2023-01-19T08:58:19.716Z,-0.4
2023-01-19T08:59:19.775Z,-0.4
2023-01-19T09:00:19.703Z,-0.4
2023-01-19T09:01:19.856Z,-0.4
2023-01-19T09:02:19.774Z,-0.4
2023-01-19T09:03:19.853Z,-0.4
2023-01-19T09:04:19.751Z,-0.4
2023-01-19T09:05:19.774Z,-0.4
2023-01-19T09:06:19.713Z,-0.4
2023-01-19T09:07:19.798Z,-0.4
2023-01-19T09:08:19.827Z,-0.3
2023-01-19T09:09:19.933Z,-0.3
2023-01-19T09:10:19.726Z,-0.3
2023-01-19T09:11:19.784Z,-0.3
2023-01-19T09:12:19.785Z,-0.3
2023-01-19T09:13:19.795Z,-0.3
2023-01-19T09:14:19.736Z,-0.3
2023-01-19T09:15:19.788Z,-0.3
2023-01-19T09:16:19.755Z,-0.3
2023-01-19T09:17:19.851Z,-0.3
2023-01-19T09:18:19.788Z,-0.2
2023-01-19T09:19:19.966Z,-0.2
2023-01-19T09:20:19.790Z,-0.2
2023-01-19T09:21:20.003Z,-0.2
2023-01-19T09:22:19.748Z,-0.2
2023-01-19T09:23:19.835Z,-0.2
2023-01-19T09:24:19.788Z,-0.2
2023-01-19T09:25:19.816Z,-0.2
2023-01-19T09:26:19.803Z,-0.2
2023-01-19T09:27:19.813Z,-0.2
2023-01-19T09:28:19.762Z,-0.2
2023-01-19T09:29:19.987Z,-0.2
2023-01-19T09:30:19.758Z,-0.2
2023-01-19T09:31:20.279Z,-0.2
2023-01-19T09:32:19.831Z,-0.2
2023-01-19T09:33:19.868Z,-0.2
2023-01-19T09:34:19.831Z,-0.1
2023-01-19T09:35:19.856Z,-0.1
2023-01-19T09:36:19.829Z,-0.1
2023-01-19T09:37:19.843Z,-0.1
2023-01-19T09:38:19.800Z,-0.1
2023-01-19T09:39:19.843Z,-0.1
2023-01-19T09:40:19.894Z,-0.1
2023-01-19T09:41:19.839Z,0
2023-01-19T09:42:19.889Z,0
2023-01-19T09:43:19.856Z,0
2023-01-19T09:44:19.844Z,0
2023-01-19T09:45:19.849Z,0
2023-01-19T09:46:19.943Z,0
2023-01-19T09:47:19.905Z,0
2023-01-19T09:48:19.908Z,0
2023-01-19T09:49:19.899Z,0
2023-01-19T09:50:19.876Z,0
2023-01-19T09:51:19.896Z,0.1
2023-01-19T09:52:19.899Z,0.1
2023-01-19T09:53:19.896Z,0.1
2023-01-19T09:54:19.928Z,0.1
2023-01-19T09:55:20.140Z,0.1
2023-01-19T09:56:19.884Z,0.1
2023-01-19T09:57:19.952Z,0.1
2023-01-19T09:58:19.908Z,0.1
2023-01-19T09:59:19.994Z,0.1
2023-01-19T10:00:19.938Z,0.1
2023-01-19T10:01:20.028Z,0.1
2023-01-19T10:02:19.939Z,0.1
2023-01-19T10:03:19.997Z,0.1
2023-01-19T10:04:19.964Z,0.1
2023-01-19T10:05:19.943Z,0.1
2023-01-19T10:06:19.957Z,0.1
2023-01-19T10:07:19.948Z,0.1
2023-01-19T10:08:20.007Z,0.1
2023-01-19T10:09:20.175Z,0.1
2023-01-19T10:10:19.994Z,0.1
2023-01-19T10:11:19.949Z,0.1
2023-01-19T10:12:20.037Z,0.1
2023-01-19T10:13:19.943Z,0.1
2023-01-19T10:14:20.003Z,0.1
2023-01-19T10:15:19.949Z,0.1
2023-01-19T10:16:20.056Z,0.1
2023-01-19T10:17:19.959Z,0.1
2023-01-19T10:18:19.957Z,0.1
2023-01-19T10:19:19.962Z,0.1
2023-01-19T10:20:20.039Z,0.1
2023-01-19T10:21:19.965Z,0.1
2023-01-19T10:22:20.129Z,0.1
2023-01-19T10:23:19.943Z,0.1
2023-01-19T10:24:19.972Z,0.1
2023-01-19T10:25:20.020Z,0.1
2023-01-19T10:26:19.949Z,0.1
2023-01-19T10:27:19.971Z,0.1
2023-01-19T10:28:19.992Z,0.2
2023-01-19T10:29:20.012Z,0.2
2023-01-19T10:30:20.029Z,0.2
2023-01-19T10:31:20.163Z,0.2
2023-01-19T10:32:20.105Z,0.2
2023-01-19T10:33:20.997Z,0.2
2023-01-19T10:34:23.159Z,0.2
2023-01-19T10:35:19.991Z,0.2
2023-01-19T10:36:20.105Z,0.2
2023-01-19T10:37:20.021Z,0.2
2023-01-19T10:38:20.006Z,0.2
2023-01-19T10:39:20.078Z,0.2
2023-01-19T10:40:19.985Z,0.2
2023-01-19T10:41:20.021Z,0.2
2023-01-19T10:42:19.987Z,0.2
2023-01-19T10:43:20.097Z,0.2
2023-01-19T10:44:20.097Z,0.2
2023-01-19T10:45:20.039Z,0.2
2023-01-19T10:46:20.088Z,0.2
2023-01-19T10:47:20.081Z,0.2
2023-01-19T10:48:20.067Z,0.2
2023-01-19T10:49:19.997Z,0.2
2023-01-19T10:50:19.999Z,0.2
2023-01-19T10:51:20.004Z,0.2
2023-01-19T10:52:19.998Z,0.2
2023-01-19T10:53:20.087Z,0.2
2023-01-19T10:54:20.016Z,0.2
2023-01-19T10:55:20.001Z,0.2
2023-01-19T10:56:20.024Z,0.2
2023-01-19T10:57:20.189Z,0.2
2023-01-19T10:58:20.091Z,0.2
2023-01-19T10:59:20.196Z,0.2
2023-01-19T11:00:20.054Z,0.2
2023-01-19T11:01:20.258Z,0.3
2023-01-19T11:02:20.326Z,0.3
2023-01-19T11:03:20.069Z,0.3
2023-01-19T11:04:20.113Z,0.3
2023-01-19T11:05:20.050Z,0.3
2023-01-19T11:06:20.066Z,0.3
2023-01-19T11:07:20.057Z,0.3
2023-01-19T11:08:20.068Z,0.3
2023-01-19T11:09:20.093Z,0.3
2023-01-19T11:10:20.052Z,0.3
2023-01-19T11:11:20.179Z,0.3
2023-01-19T11:12:20.069Z,0.3
2023-01-19T11:13:20.070Z,0.3
2023-01-19T11:14:20.073Z,0.3
2023-01-19T11:15:20.132Z,0.3
2023-01-19T11:16:20.137Z,0.3
2023-01-19T11:17:20.122Z,0.3
2023-01-19T11:18:20.113Z,0.3
2023-01-19T11:19:20.391Z,0.3
2023-01-19T11:20:20.226Z,0.3
2023-01-19T11:21:20.376Z,0.3
2023-01-19T11:22:20.197Z,0.3
2023-01-19T11:23:20.239Z,0.4
2023-01-19T11:24:20.251Z,0.4
2023-01-19T11:25:20.243Z,0.4
2023-01-19T11:26:20.203Z,0.4
2023-01-19T11:27:20.252Z,0.4
2023-01-19T11:28:20.177Z,0.4
2023-01-19T11:29:20.214Z,0.4
2023-01-19T11:30:20.222Z,0.5
2023-01-19T11:31:20.340Z,0.5
2023-01-19T11:32:20.272Z,0.5
2023-01-19T11:33:20.158Z,0.5
2023-01-19T11:34:20.223Z,0.6
2023-01-19T11:35:20.165Z,0.6
2023-01-19T11:36:20.218Z,0.6
2023-01-19T11:37:20.288Z,0.6
2023-01-19T11:38:20.220Z,0.6
2023-01-19T11:39:20.309Z,0.6
2023-01-19T11:40:20.195Z,0.6
2023-01-19T11:41:20.193Z,0.6
2023-01-19T11:42:20.199Z,0.6
2023-01-19T11:43:20.289Z,0.6
2023-01-19T11:44:20.300Z,0.6
2023-01-19T11:45:20.206Z,0.6
2023-01-19T11:46:20.213Z,0.6
2023-01-19T11:47:20.195Z,0.6
2023-01-19T11:48:20.224Z,0.6
2023-01-19T11:49:20.232Z,0.6
2023-01-19T11:50:20.194Z,0.7
2023-01-19T11:51:20.190Z,0.7
2023-01-19T11:52:20.208Z,0.7
2023-01-19T11:53:20.238Z,0.7
2023-01-19T11:54:20.191Z,0.7
2023-01-19T11:55:20.205Z,0.7
2023-01-19T11:56:20.232Z,0.7
2023-01-19T11:57:20.183Z,0.7
2023-01-19T11:58:20.208Z,0.7
2023-01-19T11:59:20.254Z,0.7
2023-01-19T12:00:20.219Z,0.6
2023-01-19T12:01:20.275Z,0.6
2023-01-19T12:02:20.432Z,0.6
2023-01-19T12:03:20.317Z,0.6
2023-01-19T12:04:20.263Z,0.5
2023-01-19T12:05:20.210Z,0.5
2023-01-19T12:06:20.216Z,0.5
2023-01-19T12:07:20.202Z,0.5
2023-01-19T12:08:20.206Z,0.5
2023-01-19T12:09:20.249Z,0.5
2023-01-19T12:10:20.218Z,0.4
2023-01-19T12:11:20.261Z,0.4
2023-01-19T12:12:20.242Z,0.4
2023-01-19T12:13:20.344Z,0.4
2023-01-19T12:14:20.260Z,0.5
2023-01-19T12:15:20.269Z,0.5
2023-01-19T12:16:20.264Z,0.5
2023-01-19T12:17:20.280Z,0.5
2023-01-19T12:18:20.269Z,0.5
2023-01-19T12:19:20.334Z,0.5
2023-01-19T12:20:20.290Z,0.5
2023-01-19T12:21:20.243Z,0.6
2023-01-19T12:22:20.245Z,0.6
2023-01-19T12:23:20.423Z,0.6
2023-01-19T12:24:20.406Z,0.7
2023-01-19T12:25:20.681Z,0.7
2023-01-19T12:26:20.368Z,0.7
2023-01-19T12:27:20.332Z,0.7
2023-01-19T12:28:20.331Z,0.7
2023-01-19T12:29:20.428Z,0.7
2023-01-19T12:30:20.343Z,0.7
2023-01-19T12:31:20.479Z,0.8
2023-01-19T12:32:20.333Z,0.8
2023-01-19T12:33:20.350Z,0.8
2023-01-19T12:34:20.342Z,0.9
2023-01-19T12:35:20.378Z,0.9
2023-01-19T12:36:20.348Z,0.9
2023-01-19T12:37:20.351Z,0.9
2023-01-19T12:38:20.325Z,1.1
2023-01-19T12:39:20.348Z,1.1
2023-01-19T12:40:20.335Z,1.1
2023-01-19T12:41:20.350Z,1.1
2023-01-19T12:42:21.379Z,1.1
2023-01-19T12:43:20.362Z,1.1
2023-01-19T12:44:20.357Z,1.1
2023-01-19T12:45:20.365Z,1.2
2023-01-19T12:46:20.400Z,1.2
2023-01-19T12:47:20.468Z,1.2
2023-01-19T12:48:20.332Z,1.2
2023-01-19T12:49:20.433Z,1.2
2023-01-19T12:50:20.360Z,1.2
2023-01-19T12:51:20.384Z,1.1
2023-01-19T12:52:20.404Z,1.1
2023-01-19T12:53:20.377Z,1.1
2023-01-19T12:54:21.242Z,1.1
2023-01-19T12:55:20.394Z,1.1
2023-01-19T12:56:20.352Z,1.1
2023-01-19T12:57:20.365Z,1.1
2023-01-19T12:58:20.356Z,1
2023-01-19T12:59:20.465Z,1
2023-01-19T13:00:21.007Z,1
2023-01-19T13:01:20.518Z,1
2023-01-19T13:02:20.437Z,1
2023-01-19T13:03:20.690Z,1
2023-01-19T13:04:20.454Z,1
2023-01-19T13:05:20.458Z,1
2023-01-19T13:06:20.414Z,1
2023-01-19T13:07:20.410Z,1
2023-01-19T13:08:20.441Z,1
2023-01-19T13:09:20.466Z,1
2023-01-19T13:10:20.401Z,1
2023-01-19T13:11:20.428Z,1
2023-01-19T13:12:20.428Z,1
2023-01-19T13:13:20.414Z,1
2023-01-19T13:14:20.437Z,1
2023-01-19T13:15:20.420Z,1
2023-01-19T13:16:20.593Z,1
2023-01-19T13:17:20.446Z,1
2023-01-19T13:18:20.434Z,1
2023-01-19T13:19:20.484Z,1
2023-01-19T13:20:20.456Z,1
2023-01-19T13:21:20.715Z,1
2023-01-19T13:22:20.512Z,1
2023-01-19T13:23:20.575Z,1
2023-01-19T13:24:20.590Z,1
2023-01-19T13:25:20.504Z,1
2023-01-19T13:26:20.518Z,1
2023-01-19T13:27:20.528Z,1
2023-01-19T13:28:20.528Z,1
2023-01-19T13:29:20.724Z,1
2023-01-19T13:30:20.569Z,1
2023-01-19T13:31:20.572Z,1
2023-01-19T13:32:20.529Z,1